sensor_id;sensor_type;location;lat;lon;timestamp;temperature;humidity
24426;DHT22;12611;44.446;26.000;2023-08-30T00:00:20;29.40;56.00
24426;DHT22;12611;44.446;26.000;2023-08-30T00:02:49;29.40;56.10
24426;DHT22;12611;44.446;26.000;2023-08-30T00:05:18;29.40;56.20
24426;DHT22;12611;44.446;26.000;2023-08-30T00:07:46;29.40;56.20
24426;DHT22;12611;44.446;26.000;2023-08-30T00:10:15;29.40;56.10
24426;DHT22;12611;44.446;26.000;2023-08-30T00:12:44;29.30;56.10
24426;DHT22;12611;44.446;26.000;2023-08-30T00:15:14;29.40;56.10
24426;DHT22;12611;44.446;26.000;2023-08-30T00:17:43;29.30;56.10
24426;DHT22;12611;44.446;26.000;2023-08-30T00:20:12;29.30;56.00
24426;DHT22;12611;44.446;26.000;2023-08-30T00:22:41;29.30;56.00
24426;DHT22;12611;44.446;26.000;2023-08-30T00:25:10;29.30;56.40
24426;DHT22;12611;44.446;26.000;2023-08-30T00:27:38;29.30;56.40
24426;DHT22;12611;44.446;26.000;2023-08-30T00:30:08;29.20;56.60
24426;DHT22;12611;44.446;26.000;2023-08-30T00:32:38;29.10;56.70
24426;DHT22;12611;44.446;26.000;2023-08-30T00:35:08;29.10;56.80
24426;DHT22;12611;44.446;26.000;2023-08-30T00:37:36;29.10;56.70
24426;DHT22;12611;44.446;26.000;2023-08-30T00:40:06;29.10;56.70
24426;DHT22;12611;44.446;26.000;2023-08-30T00:42:35;29.10;56.70
24426;DHT22;12611;44.446;26.000;2023-08-30T00:45:04;29.00;56.90
24426;DHT22;12611;44.446;26.000;2023-08-30T00:47:33;29.00;57.50
24426;DHT22;12611;44.446;26.000;2023-08-30T00:50:05;29.00;56.80
24426;DHT22;12611;44.446;26.000;2023-08-30T00:52:34;28.90;57.00
24426;DHT22;12611;44.446;26.000;2023-08-30T00:55:03;28.90;57.00
24426;DHT22;12611;44.446;26.000;2023-08-30T00:57:31;28.90;56.90
24426;DHT22;12611;44.446;26.000;2023-08-30T01:00:00;28.80;56.90
24426;DHT22;12611;44.446;26.000;2023-08-30T01:02:31;28.80;56.70
24426;DHT22;12611;44.446;26.000;2023-08-30T01:04:59;28.80;56.70
24426;DHT22;12611;44.446;26.000;2023-08-30T01:07:29;28.80;56.80
24426;DHT22;12611;44.446;26.000;2023-08-30T01:09:58;28.80;56.80
24426;DHT22;12611;44.446;26.000;2023-08-30T01:12:31;28.80;56.70
24426;DHT22;12611;44.446;26.000;2023-08-30T01:15:08;28.70;56.60
24426;DHT22;12611;44.446;26.000;2023-08-30T01:17:39;28.70;57.20
24426;DHT22;12611;44.446;26.000;2023-08-30T01:20:10;28.70;56.60
24426;DHT22;12611;44.446;26.000;2023-08-30T01:22:51;28.70;57.20
24426;DHT22;12611;44.446;26.000;2023-08-30T01:25:31;28.70;56.60
24426;DHT22;12611;44.446;26.000;2023-08-30T01:28:04;28.70;56.70
24426;DHT22;12611;44.446;26.000;2023-08-30T01:30:35;28.60;56.70
24426;DHT22;12611;44.446;26.000;2023-08-30T01:33:06;28.60;56.60
24426;DHT22;12611;44.446;26.000;2023-08-30T01:35:36;28.60;56.60
24426;DHT22;12611;44.446;26.000;2023-08-30T01:38:08;28.60;56.70
24426;DHT22;12611;44.446;26.000;2023-08-30T01:40:40;28.60;56.60
24426;DHT22;12611;44.446;26.000;2023-08-30T01:43:11;28.50;56.60
24426;DHT22;12611;44.446;26.000;2023-08-30T01:45:42;28.50;56.60
24426;DHT22;12611;44.446;26.000;2023-08-30T01:48:14;28.50;56.60
24426;DHT22;12611;44.446;26.000;2023-08-30T01:50:44;28.50;56.70
24426;DHT22;12611;44.446;26.000;2023-08-30T01:53:13;28.50;56.70
24426;DHT22;12611;44.446;26.000;2023-08-30T01:55:43;28.40;56.60
24426;DHT22;12611;44.446;26.000;2023-08-30T01:58:13;28.40;57.30
24426;DHT22;12611;44.446;26.000;2023-08-30T02:00:41;28.40;56.60
24426;DHT22;12611;44.446;26.000;2023-08-30T02:03:11;28.40;56.70
24426;DHT22;12611;44.446;26.000;2023-08-30T02:05:47;28.40;56.70
24426;DHT22;12611;44.446;26.000;2023-08-30T02:08:18;28.40;56.70
24426;DHT22;12611;44.446;26.000;2023-08-30T02:10:52;28.40;56.80
24426;DHT22;12611;44.446;26.000;2023-08-30T02:13:28;28.40;57.00
24426;DHT22;12611;44.446;26.000;2023-08-30T02:16:00;28.30;57.10
24426;DHT22;12611;44.446;26.000;2023-08-30T02:18:29;28.30;57.10
24426;DHT22;12611;44.446;26.000;2023-08-30T02:21:00;28.30;57.10
24426;DHT22;12611;44.446;26.000;2023-08-30T02:23:30;28.30;57.10
24426;DHT22;12611;44.446;26.000;2023-08-30T02:26:02;28.30;57.20
24426;DHT22;12611;44.446;26.000;2023-08-30T02:28:32;28.30;57.20
24426;DHT22;12611;44.446;26.000;2023-08-30T02:31:01;28.20;57.10
24426;DHT22;12611;44.446;26.000;2023-08-30T02:33:30;28.20;57.10
24426;DHT22;12611;44.446;26.000;2023-08-30T02:35:58;28.20;57.10
24426;DHT22;12611;44.446;26.000;2023-08-30T02:38:27;28.20;57.10
24426;DHT22;12611;44.446;26.000;2023-08-30T02:40:55;28.20;57.10
24426;DHT22;12611;44.446;26.000;2023-08-30T02:43:24;28.20;57.10
24426;DHT22;12611;44.446;26.000;2023-08-30T02:45:54;28.20;57.20
24426;DHT22;12611;44.446;26.000;2023-08-30T02:48:23;28.10;57.20
24426;DHT22;12611;44.446;26.000;2023-08-30T02:50:52;28.10;57.20
24426;DHT22;12611;44.446;26.000;2023-08-30T02:53:20;28.10;57.20
24426;DHT22;12611;44.446;26.000;2023-08-30T02:55:49;28.10;57.30
24426;DHT22;12611;44.446;26.000;2023-08-30T02:58:17;28.10;57.40
24426;DHT22;12611;44.446;26.000;2023-08-30T03:00:46;28.00;57.40
24426;DHT22;12611;44.446;26.000;2023-08-30T03:03:16;28.00;57.40
24426;DHT22;12611;44.446;26.000;2023-08-30T03:05:44;28.00;57.50
24426;DHT22;12611;44.446;26.000;2023-08-30T03:08:16;28.00;57.50
24426;DHT22;12611;44.446;26.000;2023-08-30T03:10:44;28.00;57.60
24426;DHT22;12611;44.446;26.000;2023-08-30T03:13:13;27.90;57.70
24426;DHT22;12611;44.446;26.000;2023-08-30T03:15:41;27.90;57.70
24426;DHT22;12611;44.446;26.000;2023-08-30T03:18:10;27.90;57.70
24426;DHT22;12611;44.446;26.000;2023-08-30T03:20:41;27.90;57.80
24426;DHT22;12611;44.446;26.000;2023-08-30T03:23:09;27.90;57.80
24426;DHT22;12611;44.446;26.000;2023-08-30T03:25:38;27.90;57.80
24426;DHT22;12611;44.446;26.000;2023-08-30T03:28:06;27.90;57.90
24426;DHT22;12611;44.446;26.000;2023-08-30T03:30:35;27.90;57.90
24426;DHT22;12611;44.446;26.000;2023-08-30T03:33:04;27.90;57.90
24426;DHT22;12611;44.446;26.000;2023-08-30T03:35:34;27.90;57.90
24426;DHT22;12611;44.446;26.000;2023-08-30T03:38:05;27.80;58.50
24426;DHT22;12611;44.446;26.000;2023-08-30T03:40:34;27.80;57.90
24426;DHT22;12611;44.446;26.000;2023-08-30T03:43:04;27.80;57.90
24426;DHT22;12611;44.446;26.000;2023-08-30T03:45:35;27.80;58.00
24426;DHT22;12611;44.446;26.000;2023-08-30T03:48:06;27.80;58.20
24426;DHT22;12611;44.446;26.000;2023-08-30T03:50:36;27.80;58.40
24426;DHT22;12611;44.446;26.000;2023-08-30T03:53:06;27.80;58.40
24426;DHT22;12611;44.446;26.000;2023-08-30T03:55:34;27.80;58.50
24426;DHT22;12611;44.446;26.000;2023-08-30T03:58:03;27.70;58.40
24426;DHT22;12611;44.446;26.000;2023-08-30T04:00:32;27.70;58.40
24426;DHT22;12611;44.446;26.000;2023-08-30T04:03:04;27.70;58.50
24426;DHT22;12611;44.446;26.000;2023-08-30T04:05:33;27.70;58.80
24426;DHT22;12611;44.446;26.000;2023-08-30T04:08:02;27.70;58.80
24426;DHT22;12611;44.446;26.000;2023-08-30T04:10:36;27.70;59.00
24426;DHT22;12611;44.446;26.000;2023-08-30T04:13:05;27.70;59.00
24426;DHT22;12611;44.446;26.000;2023-08-30T04:15:35;27.70;58.90
24426;DHT22;12611;44.446;26.000;2023-08-30T04:18:05;27.70;58.90
24426;DHT22;12611;44.446;26.000;2023-08-30T04:20:34;27.70;59.00
24426;DHT22;12611;44.446;26.000;2023-08-30T04:23:06;27.70;59.00
24426;DHT22;12611;44.446;26.000;2023-08-30T04:25:37;27.70;59.10
24426;DHT22;12611;44.446;26.000;2023-08-30T04:28:05;27.70;59.30
24426;DHT22;12611;44.446;26.000;2023-08-30T04:30:36;27.70;59.40
24426;DHT22;12611;44.446;26.000;2023-08-30T04:33:05;27.70;59.80
24426;DHT22;12611;44.446;26.000;2023-08-30T04:35:34;27.70;59.70
24426;DHT22;12611;44.446;26.000;2023-08-30T04:38:03;27.70;60.00
24426;DHT22;12611;44.446;26.000;2023-08-30T04:40:32;27.70;59.90
24426;DHT22;12611;44.446;26.000;2023-08-30T04:43:02;27.70;59.70
24426;DHT22;12611;44.446;26.000;2023-08-30T04:45:31;27.70;59.90
24426;DHT22;12611;44.446;26.000;2023-08-30T04:47:59;27.70;59.80
24426;DHT22;12611;44.446;26.000;2023-08-30T04:50:28;27.70;59.70
24426;DHT22;12611;44.446;26.000;2023-08-30T04:52:57;27.70;59.70
24426;DHT22;12611;44.446;26.000;2023-08-30T04:55:28;27.70;60.00
24426;DHT22;12611;44.446;26.000;2023-08-30T04:57:57;27.70;59.90
24426;DHT22;12611;44.446;26.000;2023-08-30T05:00:27;27.80;60.10
24426;DHT22;12611;44.446;26.000;2023-08-30T05:02:56;27.70;59.90
24426;DHT22;12611;44.446;26.000;2023-08-30T05:05:25;27.80;60.10
24426;DHT22;12611;44.446;26.000;2023-08-30T05:07:53;27.80;60.00
24426;DHT22;12611;44.446;26.000;2023-08-30T05:10:22;27.80;59.90
24426;DHT22;12611;44.446;26.000;2023-08-30T05:12:50;27.90;59.80
24426;DHT22;12611;44.446;26.000;2023-08-30T05:15:19;27.90;59.80
24426;DHT22;12611;44.446;26.000;2023-08-30T05:17:49;27.90;59.70
24426;DHT22;12611;44.446;26.000;2023-08-30T05:20:18;28.00;60.00
24426;DHT22;12611;44.446;26.000;2023-08-30T05:22:47;28.00;60.30
24426;DHT22;12611;44.446;26.000;2023-08-30T05:25:15;28.00;60.10
24426;DHT22;12611;44.446;26.000;2023-08-30T05:27:44;28.00;59.90
24426;DHT22;12611;44.446;26.000;2023-08-30T05:30:17;28.10;59.90
24426;DHT22;12611;44.446;26.000;2023-08-30T05:33:00;28.10;60.40
24426;DHT22;12611;44.446;26.000;2023-08-30T05:35:29;28.00;60.70
24426;DHT22;12611;44.446;26.000;2023-08-30T05:37:58;28.00;61.00
24426;DHT22;12611;44.446;26.000;2023-08-30T05:40:26;28.00;61.10
24426;DHT22;12611;44.446;26.000;2023-08-30T05:42:55;28.00;60.80
24426;DHT22;12611;44.446;26.000;2023-08-30T05:45:23;28.00;60.90
24426;DHT22;12611;44.446;26.000;2023-08-30T05:47:53;28.00;61.20
24426;DHT22;12611;44.446;26.000;2023-08-30T05:50:22;28.00;61.30
24426;DHT22;12611;44.446;26.000;2023-08-30T05:52:50;28.00;61.30
24426;DHT22;12611;44.446;26.000;2023-08-30T05:55:20;28.00;61.30
24426;DHT22;12611;44.446;26.000;2023-08-30T05:57:49;28.00;61.40
24426;DHT22;12611;44.446;26.000;2023-08-30T06:00:18;28.00;62.20
24426;DHT22;12611;44.446;26.000;2023-08-30T06:02:47;28.10;61.10
24426;DHT22;12611;44.446;26.000;2023-08-30T06:05:17;28.10;61.20
24426;DHT22;12611;44.446;26.000;2023-08-30T06:07:45;28.20;61.30
24426;DHT22;12611;44.446;26.000;2023-08-30T06:10:14;28.20;61.50
24426;DHT22;12611;44.446;26.000;2023-08-30T06:12:42;28.20;61.50
24426;DHT22;12611;44.446;26.000;2023-08-30T06:15:11;28.20;61.40
24426;DHT22;12611;44.446;26.000;2023-08-30T06:17:39;28.30;61.30
24426;DHT22;12611;44.446;26.000;2023-08-30T06:20:08;28.30;61.20
24426;DHT22;12611;44.446;26.000;2023-08-30T06:22:38;28.30;61.10
24426;DHT22;12611;44.446;26.000;2023-08-30T06:25:12;28.40;61.10
24426;DHT22;12611;44.446;26.000;2023-08-30T06:27:41;28.50;61.10
24426;DHT22;12611;44.446;26.000;2023-08-30T06:30:11;28.50;60.80
24426;DHT22;12611;44.446;26.000;2023-08-30T06:32:40;28.60;61.00
24426;DHT22;12611;44.446;26.000;2023-08-30T06:35:09;28.60;60.70
24426;DHT22;12611;44.446;26.000;2023-08-30T06:37:38;28.70;60.60
24426;DHT22;12611;44.446;26.000;2023-08-30T06:40:08;28.80;60.60
24426;DHT22;12611;44.446;26.000;2023-08-30T06:42:36;28.80;60.50
24426;DHT22;12611;44.446;26.000;2023-08-30T06:45:06;28.90;60.40
24426;DHT22;12611;44.446;26.000;2023-08-30T06:47:35;28.80;60.60
24426;DHT22;12611;44.446;26.000;2023-08-30T06:50:04;28.90;60.50
24426;DHT22;12611;44.446;26.000;2023-08-30T06:52:33;28.90;60.40
24426;DHT22;12611;44.446;26.000;2023-08-30T06:55:03;29.00;60.30
24426;DHT22;12611;44.446;26.000;2023-08-30T06:57:32;29.00;60.40
24426;DHT22;12611;44.446;26.000;2023-08-30T07:00:00;29.10;60.50
24426;DHT22;12611;44.446;26.000;2023-08-30T07:02:36;29.10;60.50
24426;DHT22;12611;44.446;26.000;2023-08-30T07:05:06;29.10;60.20
24426;DHT22;12611;44.446;26.000;2023-08-30T07:07:34;29.10;60.20
24426;DHT22;12611;44.446;26.000;2023-08-30T07:10:05;29.10;60.20
24426;DHT22;12611;44.446;26.000;2023-08-30T07:12:34;29.10;60.50
24426;DHT22;12611;44.446;26.000;2023-08-30T07:28:47;29.40;60.30
24426;DHT22;12611;44.446;26.000;2023-08-30T07:31:30;29.50;60.10
24426;DHT22;12611;44.446;26.000;2023-08-30T07:44:01;29.80;59.70
24426;DHT22;12611;44.446;26.000;2023-08-30T07:46:30;29.90;59.60
24426;DHT22;12611;44.446;26.000;2023-08-30T07:48:59;29.90;59.50
24426;DHT22;12611;44.446;26.000;2023-08-30T07:51:28;30.00;59.50
24426;DHT22;12611;44.446;26.000;2023-08-30T07:53:56;30.00;59.40
24426;DHT22;12611;44.446;26.000;2023-08-30T07:56:25;30.00;59.40
24426;DHT22;12611;44.446;26.000;2023-08-30T07:58:54;30.10;59.20
24426;DHT22;12611;44.446;26.000;2023-08-30T08:01:24;30.10;59.20
24426;DHT22;12611;44.446;26.000;2023-08-30T08:03:52;30.20;59.10
24426;DHT22;12611;44.446;26.000;2023-08-30T08:06:32;30.30;59.10
24426;DHT22;12611;44.446;26.000;2023-08-30T08:09:04;30.40;59.00
24426;DHT22;12611;44.446;26.000;2023-08-30T08:11:34;30.50;58.90
24426;DHT22;12611;44.446;26.000;2023-08-30T08:14:03;30.60;58.80
24426;DHT22;12611;44.446;26.000;2023-08-30T08:16:34;30.70;58.70
24426;DHT22;12611;44.446;26.000;2023-08-30T08:19:02;30.80;58.40
24426;DHT22;12611;44.446;26.000;2023-08-30T08:21:34;30.90;58.30
24426;DHT22;12611;44.446;26.000;2023-08-30T08:24:03;30.90;58.20
24426;DHT22;12611;44.446;26.000;2023-08-30T08:26:32;31.00;58.20
24426;DHT22;12611;44.446;26.000;2023-08-30T08:29:01;31.00;57.90
24426;DHT22;12611;44.446;26.000;2023-08-30T08:31:30;31.10;57.80
24426;DHT22;12611;44.446;26.000;2023-08-30T08:34:09;31.20;57.80
24426;DHT22;12611;44.446;26.000;2023-08-30T08:36:38;31.20;57.60
24426;DHT22;12611;44.446;26.000;2023-08-30T08:39:08;31.30;57.60
24426;DHT22;12611;44.446;26.000;2023-08-30T09:10:33;31.70;56.80
24426;DHT22;12611;44.446;26.000;2023-08-30T09:13:21;31.70;56.80
24426;DHT22;12611;44.446;26.000;2023-08-30T09:16:23;31.80;56.50
24426;DHT22;12611;44.446;26.000;2023-08-30T09:22:35;31.90;56.20
24426;DHT22;12611;44.446;26.000;2023-08-30T09:29:38;32.00;55.90
24426;DHT22;12611;44.446;26.000;2023-08-30T09:56:07;32.20;55.60
24426;DHT22;12611;44.446;26.000;2023-08-30T09:58:38;32.20;55.50
24426;DHT22;12611;44.446;26.000;2023-08-30T10:01:09;32.30;55.40
24426;DHT22;12611;44.446;26.000;2023-08-30T10:03:39;32.30;55.40
24426;DHT22;12611;44.446;26.000;2023-08-30T10:06:09;32.30;55.30
24426;DHT22;12611;44.446;26.000;2023-08-30T10:08:38;32.30;55.00
24426;DHT22;12611;44.446;26.000;2023-08-30T10:11:11;32.30;54.70
24426;DHT22;12611;44.446;26.000;2023-08-30T10:13:42;32.40;54.70
24426;DHT22;12611;44.446;26.000;2023-08-30T10:16:15;32.50;54.80
24426;DHT22;12611;44.446;26.000;2023-08-30T10:18:49;32.50;54.80
24426;DHT22;12611;44.446;26.000;2023-08-30T10:21:31;32.60;54.70
24426;DHT22;12611;44.446;26.000;2023-08-30T10:24:00;32.70;54.70
24426;DHT22;12611;44.446;26.000;2023-08-30T10:26:46;32.70;54.70
24426;DHT22;12611;44.446;26.000;2023-08-30T10:29:16;32.80;54.70
24426;DHT22;12611;44.446;26.000;2023-08-30T10:31:45;32.80;54.60
24426;DHT22;12611;44.446;26.000;2023-08-30T10:34:17;32.90;54.60
24426;DHT22;12611;44.446;26.000;2023-08-30T10:36:56;32.90;54.10
24426;DHT22;12611;44.446;26.000;2023-08-30T10:39:33;32.90;54.20
24426;DHT22;12611;44.446;26.000;2023-08-30T10:42:09;33.00;54.30
24426;DHT22;12611;44.446;26.000;2023-08-30T10:44:47;33.10;54.40
24426;DHT22;12611;44.446;26.000;2023-08-30T10:47:37;33.10;54.90
24426;DHT22;12611;44.446;26.000;2023-08-30T10:50:08;33.20;54.10
24426;DHT22;12611;44.446;26.000;2023-08-30T10:52:37;33.20;53.90
24426;DHT22;12611;44.446;26.000;2023-08-30T10:55:07;33.20;53.40
24426;DHT22;12611;44.446;26.000;2023-08-30T10:57:41;33.30;53.20
24426;DHT22;12611;44.446;26.000;2023-08-30T11:00:12;33.30;53.20
24426;DHT22;12611;44.446;26.000;2023-08-30T11:02:49;33.40;53.60
24426;DHT22;12611;44.446;26.000;2023-08-30T11:05:21;33.40;52.80
24426;DHT22;12611;44.446;26.000;2023-08-30T11:07:51;33.40;52.40
24426;DHT22;12611;44.446;26.000;2023-08-30T11:10:21;33.40;52.30
24426;DHT22;12611;44.446;26.000;2023-08-30T11:12:51;33.50;52.20
24426;DHT22;12611;44.446;26.000;2023-08-30T11:15:20;33.50;51.70
24426;DHT22;12611;44.446;26.000;2023-08-30T11:17:48;33.50;51.60
24426;DHT22;12611;44.446;26.000;2023-08-30T11:20:17;33.60;51.90
24426;DHT22;12611;44.446;26.000;2023-08-30T11:22:48;33.60;51.90
24426;DHT22;12611;44.446;26.000;2023-08-30T11:25:17;33.50;51.50
24426;DHT22;12611;44.446;26.000;2023-08-30T11:27:46;33.50;51.30
24426;DHT22;12611;44.446;26.000;2023-08-30T11:30:16;33.40;51.20
24426;DHT22;12611;44.446;26.000;2023-08-30T11:32:47;33.40;51.30
24426;DHT22;12611;44.446;26.000;2023-08-30T11:35:17;33.40;51.40
24426;DHT22;12611;44.446;26.000;2023-08-30T11:37:47;33.40;51.50
24426;DHT22;12611;44.446;26.000;2023-08-30T11:40:15;33.30;51.40
24426;DHT22;12611;44.446;26.000;2023-08-30T11:42:44;33.40;51.70
24426;DHT22;12611;44.446;26.000;2023-08-30T11:45:16;33.40;51.60
24426;DHT22;12611;44.446;26.000;2023-08-30T11:47:45;33.50;51.70
24426;DHT22;12611;44.446;26.000;2023-08-30T11:50:14;33.60;51.60
24426;DHT22;12611;44.446;26.000;2023-08-30T11:52:42;33.70;51.70
24426;DHT22;12611;44.446;26.000;2023-08-30T11:55:11;33.80;51.50
24426;DHT22;12611;44.446;26.000;2023-08-30T11:57:43;33.70;50.70
24426;DHT22;12611;44.446;26.000;2023-08-30T12:00:13;33.80;50.90
24426;DHT22;12611;44.446;26.000;2023-08-30T12:02:43;33.80;50.70
24426;DHT22;12611;44.446;26.000;2023-08-30T12:05:12;33.80;50.90
24426;DHT22;12611;44.446;26.000;2023-08-30T12:07:41;34.00;51.10
24426;DHT22;12611;44.446;26.000;2023-08-30T12:10:11;33.90;50.80
24426;DHT22;12611;44.446;26.000;2023-08-30T12:12:44;33.90;50.70
24426;DHT22;12611;44.446;26.000;2023-08-30T12:15:14;34.00;50.80
24426;DHT22;12611;44.446;26.000;2023-08-30T12:17:45;34.00;50.70
24426;DHT22;12611;44.446;26.000;2023-08-30T12:20:15;34.10;50.80
24426;DHT22;12611;44.446;26.000;2023-08-30T12:22:45;34.10;50.70
24426;DHT22;12611;44.446;26.000;2023-08-30T12:25:18;34.10;50.00
24426;DHT22;12611;44.446;26.000;2023-08-30T12:27:47;34.10;49.80
24426;DHT22;12611;44.446;26.000;2023-08-30T12:30:16;34.00;49.70
24426;DHT22;12611;44.446;26.000;2023-08-30T12:32:47;34.10;49.90
24426;DHT22;12611;44.446;26.000;2023-08-30T12:35:16;34.10;49.90
24426;DHT22;12611;44.446;26.000;2023-08-30T12:37:44;34.20;50.00
24426;DHT22;12611;44.446;26.000;2023-08-30T12:40:13;34.30;50.00
24426;DHT22;12611;44.446;26.000;2023-08-30T12:42:41;34.20;49.80
24426;DHT22;12611;44.446;26.000;2023-08-30T12:45:10;34.10;49.80
24426;DHT22;12611;44.446;26.000;2023-08-30T12:47:39;34.00;49.70
24426;DHT22;12611;44.446;26.000;2023-08-30T12:50:10;34.00;49.70
24426;DHT22;12611;44.446;26.000;2023-08-30T12:52:38;34.00;49.90
24426;DHT22;12611;44.446;26.000;2023-08-30T12:55:07;33.90;49.70
24426;DHT22;12611;44.446;26.000;2023-08-30T12:57:38;33.80;49.90
24426;DHT22;12611;44.446;26.000;2023-08-30T13:00:07;33.80;50.00
24426;DHT22;12611;44.446;26.000;2023-08-30T13:02:37;33.70;49.90
24426;DHT22;12611;44.446;26.000;2023-08-30T13:05:06;33.70;50.00
24426;DHT22;12611;44.446;26.000;2023-08-30T13:07:36;33.60;50.10
24426;DHT22;12611;44.446;26.000;2023-08-30T13:10:07;33.60;50.10
24426;DHT22;12611;44.446;26.000;2023-08-30T13:12:36;33.60;50.20
24426;DHT22;12611;44.446;26.000;2023-08-30T13:15:09;33.70;50.10
24426;DHT22;12611;44.446;26.000;2023-08-30T13:17:39;33.70;50.10
24426;DHT22;12611;44.446;26.000;2023-08-30T13:20:09;33.70;50.00
24426;DHT22;12611;44.446;26.000;2023-08-30T13:22:39;33.70;50.20
24426;DHT22;12611;44.446;26.000;2023-08-30T13:25:08;33.70;50.20
24426;DHT22;12611;44.446;26.000;2023-08-30T13:27:36;33.80;50.70
24426;DHT22;12611;44.446;26.000;2023-08-30T13:30:06;34.00;51.30
24426;DHT22;12611;44.446;26.000;2023-08-30T13:32:35;34.10;52.10
24426;DHT22;12611;44.446;26.000;2023-08-30T13:35:04;34.20;53.00
24426;DHT22;12611;44.446;26.000;2023-08-30T13:37:33;34.20;53.90
24426;DHT22;12611;44.446;26.000;2023-08-30T13:40:03;34.30;54.10
24426;DHT22;12611;44.446;26.000;2023-08-30T13:42:33;34.40;53.10
24426;DHT22;12611;44.446;26.000;2023-08-30T13:45:01;34.40;53.10
24426;DHT22;12611;44.446;26.000;2023-08-30T13:47:30;34.40;52.90
24426;DHT22;12611;44.446;26.000;2023-08-30T13:49:58;34.50;52.90
24426;DHT22;12611;44.446;26.000;2023-08-30T13:52:27;34.60;52.80
24426;DHT22;12611;44.446;26.000;2023-08-30T13:54:56;34.60;52.70
24426;DHT22;12611;44.446;26.000;2023-08-30T13:57:26;34.60;52.70
24426;DHT22;12611;44.446;26.000;2023-08-30T13:59:54;34.60;52.80
24426;DHT22;12611;44.446;26.000;2023-08-30T14:02:23;34.70;52.80
24426;DHT22;12611;44.446;26.000;2023-08-30T14:04:52;35.50;52.20
24426;DHT22;12611;44.446;26.000;2023-08-30T14:07:20;36.60;51.00
24426;DHT22;12611;44.446;26.000;2023-08-30T14:09:49;36.90;50.10
24426;DHT22;12611;44.446;26.000;2023-08-30T14:45:44;36.20;51.10
24426;DHT22;12611;44.446;26.000;2023-08-30T14:48:47;36.40;51.20
24426;DHT22;12611;44.446;26.000;2023-08-30T14:51:23;37.00;50.60
24426;DHT22;12611;44.446;26.000;2023-08-30T14:54:01;37.30;50.20
24426;DHT22;12611;44.446;26.000;2023-08-30T14:56:32;37.00;50.20
24426;DHT22;12611;44.446;26.000;2023-08-30T15:02:37;36.80;50.40
24426;DHT22;12611;44.446;26.000;2023-08-30T15:05:27;36.80;50.10
24426;DHT22;12611;44.446;26.000;2023-08-30T15:08:15;36.60;50.00
24426;DHT22;12611;44.446;26.000;2023-08-30T15:11:20;36.30;50.20
24426;DHT22;12611;44.446;26.000;2023-08-30T15:14:19;36.10;50.30
24426;DHT22;12611;44.446;26.000;2023-08-30T15:16:50;35.80;50.60
24426;DHT22;12611;44.446;26.000;2023-08-30T15:19:22;35.60;50.60
24426;DHT22;12611;44.446;26.000;2023-08-30T15:22:13;35.40;50.70
24426;DHT22;12611;44.446;26.000;2023-08-30T15:24:42;35.30;50.90
24426;DHT22;12611;44.446;26.000;2023-08-30T15:27:17;35.10;50.90
24426;DHT22;12611;44.446;26.000;2023-08-30T15:29:54;35.00;51.30
24426;DHT22;12611;44.446;26.000;2023-08-30T15:32:23;34.90;51.50
24426;DHT22;12611;44.446;26.000;2023-08-30T15:35:05;34.70;51.50
24426;DHT22;12611;44.446;26.000;2023-08-30T15:38:11;34.60;51.60
24426;DHT22;12611;44.446;26.000;2023-08-30T15:40:44;34.50;51.70
24426;DHT22;12611;44.446;26.000;2023-08-30T15:43:16;34.50;51.80
24426;DHT22;12611;44.446;26.000;2023-08-30T15:45:45;34.30;51.50
24426;DHT22;12611;44.446;26.000;2023-08-30T16:36:08;31.20;61.80
24426;DHT22;12611;44.446;26.000;2023-08-30T16:39:31;30.80;63.30
24426;DHT22;12611;44.446;26.000;2023-08-30T16:42:37;30.50;64.00
24426;DHT22;12611;44.446;26.000;2023-08-30T16:48:46;30.20;63.90
24426;DHT22;12611;44.446;26.000;2023-08-30T16:51:33;30.00;65.00
24426;DHT22;12611;44.446;26.000;2023-08-30T16:54:02;29.90;66.10
24426;DHT22;12611;44.446;26.000;2023-08-30T20:40:24;25.20;91.20
24426;DHT22;12611;44.446;26.000;2023-08-30T20:46:01;25.20;91.30
24426;DHT22;12611;44.446;26.000;2023-08-30T20:48:39;25.10;91.40
24426;DHT22;12611;44.446;26.000;2023-08-30T20:51:10;25.20;91.40
24426;DHT22;12611;44.446;26.000;2023-08-30T20:53:39;25.20;91.40
24426;DHT22;12611;44.446;26.000;2023-08-30T20:56:12;25.20;91.20
24426;DHT22;12611;44.446;26.000;2023-08-30T20:58:47;25.10;91.30
24426;DHT22;12611;44.446;26.000;2023-08-30T21:01:16;25.20;91.20
24426;DHT22;12611;44.446;26.000;2023-08-30T21:03:45;25.20;91.30
24426;DHT22;12611;44.446;26.000;2023-08-30T21:06:15;25.10;91.60
24426;DHT22;12611;44.446;26.000;2023-08-30T21:08:43;25.10;91.40
24426;DHT22;12611;44.446;26.000;2023-08-30T21:11:14;25.20;91.60
24426;DHT22;12611;44.446;26.000;2023-08-30T21:13:42;25.10;91.70
24426;DHT22;12611;44.446;26.000;2023-08-30T21:16:11;25.10;91.70
24426;DHT22;12611;44.446;26.000;2023-08-30T21:18:42;25.10;91.50
24426;DHT22;12611;44.446;26.000;2023-08-30T21:21:13;25.10;91.60
24426;DHT22;12611;44.446;26.000;2023-08-30T21:23:43;25.10;91.80
24426;DHT22;12611;44.446;26.000;2023-08-30T21:26:16;25.00;92.00
24426;DHT22;12611;44.446;26.000;2023-08-30T21:28:45;25.00;91.90
24426;DHT22;12611;44.446;26.000;2023-08-30T21:31:14;25.00;92.00
24426;DHT22;12611;44.446;26.000;2023-08-30T21:33:43;25.00;91.90
24426;DHT22;12611;44.446;26.000;2023-08-30T21:36:19;24.90;91.70
24426;DHT22;12611;44.446;26.000;2023-08-30T21:38:48;24.90;91.50
24426;DHT22;12611;44.446;26.000;2023-08-30T21:41:18;25.00;91.60
24426;DHT22;12611;44.446;26.000;2023-08-30T21:43:51;24.90;91.70
24426;DHT22;12611;44.446;26.000;2023-08-30T21:46:21;24.90;91.80
24426;DHT22;12611;44.446;26.000;2023-08-30T21:48:50;24.90;91.50
24426;DHT22;12611;44.446;26.000;2023-08-30T21:51:18;24.90;91.60
24426;DHT22;12611;44.446;26.000;2023-08-30T21:53:47;24.90;91.40
24426;DHT22;12611;44.446;26.000;2023-08-30T21:56:18;24.90;91.40
24426;DHT22;12611;44.446;26.000;2023-08-30T21:58:47;24.90;91.30
24426;DHT22;12611;44.446;26.000;2023-08-30T22:01:18;24.80;91.60
24426;DHT22;12611;44.446;26.000;2023-08-30T22:03:48;24.80;91.50
24426;DHT22;12611;44.446;26.000;2023-08-30T22:06:17;24.80;91.50
24426;DHT22;12611;44.446;26.000;2023-08-30T22:08:46;24.80;91.50
24426;DHT22;12611;44.446;26.000;2023-08-30T22:11:15;24.80;91.80
24426;DHT22;12611;44.446;26.000;2023-08-30T22:13:45;24.80;91.60
24426;DHT22;12611;44.446;26.000;2023-08-30T22:16:13;24.80;91.50
24426;DHT22;12611;44.446;26.000;2023-08-30T22:18:42;24.80;91.60